This is the latest recevied weather packets stored in our database for station/object KN6WGU. If no packets are shown the sender has not sent any weather packets the latest 10 day(s).
| Time | Temp. | Humidity | Pressure | Rain* | Wind** | Luminosity | Snow |
|---|---|---|---|---|---|---|---|
| 1777925751 | 23.89° C | 48% | 996.5 hPa | 0 mm | - | 509 W/m² | - |
| 1777925449 | 23.89° C | 46% | 996.7 hPa | 0 mm | - | 232 W/m² | - |
| 1777925145 | 24.44° C | 45% | 996.9 hPa | 0 mm | - | 562 W/m² | - |
| 1777924842 | 24.44° C | 45% | 997.1 hPa | 0 mm | - | 569 W/m² | - |
| 1777924538 | 23.89° C | 43% | 997.1 hPa | 0 mm | - | 576 W/m² | - |
| 1777924235 | 23.89° C | 44% | 997.2 hPa | 0 mm | - | 573 W/m² | - |
| 1777923932 | 24.44° C | 43% | 997.3 hPa | 0 mm | - | 594 W/m² | - |
| 1777923627 | 23.89° C | 45% | 997.2 hPa | 0 mm | - | 599 W/m² | - |
| 1777923324 | 23.89° C | 43% | 997.4 hPa | 0 mm | - | 616 W/m² | - |
| 1777923023 | 23.89° C | 41% | 997.4 hPa | 0 mm | - | 628 W/m² | - |
| 1777922721 | 23.89° C | 45% | 997.3 hPa | 0 mm | - | 632 W/m² | - |
| 1777922419 | 23.89° C | 48% | 997.4 hPa | 0 mm | - | 646 W/m² | - |
| 1777922116 | 23.89° C | 43% | 997.5 hPa | 0 mm | - | 653 W/m² | - |
| 1777921812 | 23.89° C | 45% | 997.7 hPa | 0 mm | - | 659 W/m² | - |
| 1777921508 | 23.33° C | 44% | 997.9 hPa | 0 mm | - | 668 W/m² | - |
| 1777921204 | 23.89° C | 44% | 997.9 hPa | 0 mm | - | 675 W/m² | - |
| 1777920902 | 23.33° C | 48% | 997.9 hPa | 0 mm | - | 682 W/m² | - |
| 1777920598 | 23.89° C | 43% | 998.1 hPa | 0 mm | - | 690 W/m² | - |
| 1777920293 | 23.33° C | 45% | 998 hPa | 0 mm | - | 694 W/m² | - |
| 1777919989 | 23.89° C | 41% | 998.1 hPa | 0 mm | - | 700 W/m² | - |
| 1777919687 | 23.89° C | 39% | 998.2 hPa | 0 mm | - | 704 W/m² | - |
| 1777919384 | 23.89° C | 39% | 998.3 hPa | 0 mm | - | 704 W/m² | - |
| 1777919081 | 23.89° C | 43% | 998 hPa | 0 mm | - | 717 W/m² | - |
| 1777918779 | 23.33° C | 41% | 998.2 hPa | 0 mm | - | 719 W/m² | - |
| 1777918475 | 23.33° C | 41% | 998.3 hPa | 0 mm | - | 720 W/m² | - |
* Rain latest hour (hover to see other rain measurements)
** Current wind speed in m/s (hover to see current wind gust speed)